PH-0037 weather

Malaysian Plaza Heliport
Pasig, Philippines

Public forecast

Using degrees Celsius for public forecast. Weather courtesy of forecast.io.

METAR (pilot weather report)

Closest report is Ninoy Aquino International Airport, 5.2 nm (9.7 km) SSW. Retrieved 2019/07/17 22:00 UTC (14 minutes ago):

RPLL 172200Z 24015KT 4000 RA SCT020 OVC080 26/26 Q1003 TEMPO +RA RMK A2962

TAF (pilot weather forecast)

Closest forecast is Ninoy Aquino International Airport, 5.2 nm (9.7 km) SSW. Retrieved 2019/07/17 18:00 UTC (4 hours ago):

TAF RPLL 171700Z 1718/1824 25012KT 9999 SCT023 BKN090 TX29/1806Z TN24/1721Z TEMPO 1718/1724 8000 -RA SCT022 OVC090 TEMPO 1800/1806 22016KT 9000 -RA SCT020 OVC080